createdAt,value
2018-11-26T00:00:01.592Z,992.74
2018-11-26T00:05:01.889Z,992.7
2018-11-26T00:10:02.143Z,992.67
2018-11-26T00:15:01.418Z,992.63
2018-11-26T00:20:01.706Z,992.58
2018-11-26T00:25:01.956Z,992.59
2018-11-26T00:30:02.200Z,992.57
2018-11-26T00:35:01.482Z,992.59
2018-11-26T00:40:01.765Z,992.59
2018-11-26T00:45:01.995Z,992.52
2018-11-26T00:50:01.305Z,992.46
2018-11-26T00:55:01.584Z,992.45
2018-11-26T01:00:01.845Z,992.4
2018-11-26T01:05:02.108Z,992.38
2018-11-26T01:10:01.390Z,992.33
2018-11-26T01:15:01.614Z,992.4
2018-11-26T01:20:01.882Z,992.41
2018-11-26T01:25:02.125Z,992.45
2018-11-26T01:30:01.401Z,992.48
2018-11-26T01:35:01.682Z,992.47
2018-11-26T01:40:01.950Z,992.54
2018-11-26T01:45:02.201Z,992.5
2018-11-26T01:50:01.642Z,992.57
2018-11-26T01:55:01.966Z,992.56
2018-11-26T02:00:02.241Z,992.56
2018-11-26T02:05:01.642Z,992.54
2018-11-26T02:10:02.098Z,992.58
2018-11-26T02:15:01.915Z,992.54
2018-11-26T02:20:02.185Z,992.62
2018-11-26T02:25:01.474Z,992.58
2018-11-26T02:30:01.769Z,992.48
2018-11-26T02:35:02.041Z,992.54
2018-11-26T02:40:01.373Z,992.53
2018-11-26T02:45:01.707Z,992.51
2018-11-26T02:50:01.955Z,992.54
2018-11-26T02:55:02.224Z,992.57
2018-11-26T03:00:01.485Z,992.57
2018-11-26T03:05:01.756Z,992.53
2018-11-26T03:10:01.998Z,992.56
2018-11-26T03:15:01.345Z,992.54
2018-11-26T03:20:01.592Z,992.53
2018-11-26T03:25:01.825Z,992.53
2018-11-26T03:30:02.128Z,992.5
2018-11-26T03:35:01.410Z,992.54
2018-11-26T03:40:01.548Z,992.46
2018-11-26T03:45:01.821Z,992.51
2018-11-26T03:50:02.104Z,992.56
2018-11-26T03:55:02.165Z,992.54
2018-11-26T04:00:01.424Z,992.54
2018-11-26T04:05:01.688Z,992.52
2018-11-26T04:10:01.967Z,992.54
2018-11-26T04:15:01.299Z,992.53
2018-11-26T04:20:01.602Z,992.56
2018-11-26T04:25:01.892Z,992.57
2018-11-26T04:30:02.170Z,992.54
2018-11-26T04:35:01.497Z,992.5
2018-11-26T04:40:01.767Z,992.43
2018-11-26T04:45:02.030Z,992.42
2018-11-26T04:50:01.349Z,992.44
2018-11-26T04:55:01.615Z,992.41
2018-11-26T05:00:01.885Z,992.36
2018-11-26T05:05:02.237Z,992.39
2018-11-26T05:10:01.531Z,992.31
2018-11-26T05:15:01.839Z,992.35
2018-11-26T05:20:02.123Z,992.32
2018-11-26T05:25:01.417Z,992.27
2018-11-26T05:30:01.653Z,992.34
2018-11-26T05:35:01.957Z,992.27
2018-11-26T05:40:01.505Z,992.25
2018-11-26T05:45:01.800Z,992.19
2018-11-26T05:50:02.034Z,992.24
2018-11-26T05:55:01.294Z,992.29
2018-11-26T06:00:01.589Z,992.38
2018-11-26T06:05:01.878Z,992.35
2018-11-26T06:10:02.117Z,992.4
2018-11-26T06:15:01.409Z,992.47
2018-11-26T06:20:01.698Z,992.51
2018-11-26T06:25:01.997Z,992.57
2018-11-26T06:30:01.263Z,992.61
2018-11-26T06:35:01.536Z,992.65
2018-11-26T06:40:01.851Z,992.58
2018-11-26T06:45:02.092Z,992.67
2018-11-26T06:50:01.360Z,992.77
2018-11-26T06:55:01.653Z,992.88
2018-11-26T07:00:01.924Z,992.91
2018-11-26T07:05:02.177Z,992.95
2018-11-26T07:10:01.465Z,993
2018-11-26T07:15:01.728Z,992.99
2018-11-26T07:20:01.967Z,993.02
2018-11-26T07:25:02.191Z,993.11
2018-11-26T07:30:01.464Z,993.15
2018-11-26T07:35:01.732Z,993.16
2018-11-26T07:40:01.991Z,993.18
2018-11-26T07:45:01.282Z,993.32
2018-11-26T07:50:01.535Z,993.39
2018-11-26T07:55:01.812Z,993.44
2018-11-26T08:00:02.030Z,993.44
2018-11-26T08:05:01.328Z,993.42
2018-11-26T08:10:01.639Z,993.49
2018-11-26T08:15:01.906Z,993.58
2018-11-26T08:20:02.142Z,993.67
2018-11-26T08:25:01.402Z,993.67
2018-11-26T08:30:01.661Z,993.74
2018-11-26T08:35:01.927Z,993.8
2018-11-26T08:40:02.150Z,993.84
2018-11-26T08:45:01.393Z,993.94
2018-11-26T08:50:01.647Z,993.93
2018-11-26T08:55:01.916Z,993.99
2018-11-26T09:00:02.149Z,994.06
2018-11-26T09:05:01.460Z,994.12
2018-11-26T09:10:01.719Z,994.11
2018-11-26T09:15:01.962Z,994.2
2018-11-26T09:20:02.201Z,994.28
2018-11-26T09:25:01.458Z,994.35
2018-11-26T09:30:01.724Z,994.38
2018-11-26T09:35:02.009Z,994.44
2018-11-26T09:40:01.304Z,994.46
2018-11-26T09:45:01.586Z,994.48
2018-11-26T09:50:01.848Z,994.5
2018-11-26T09:55:02.080Z,994.56
2018-11-26T10:00:01.365Z,994.57
2018-11-26T10:05:01.659Z,994.57
2018-11-26T10:10:01.939Z,994.57
2018-11-26T10:15:02.257Z,994.57
2018-11-26T10:20:01.509Z,994.55
2018-11-26T10:25:06.226Z,994.57
2018-11-26T10:30:01.473Z,994.54
2018-11-26T10:35:01.770Z,994.52
2018-11-26T10:40:02.026Z,994.51
2018-11-26T10:45:01.317Z,994.55
2018-11-26T10:50:01.620Z,994.55
2018-11-26T10:55:01.879Z,994.53
2018-11-26T11:00:02.116Z,994.55
2018-11-26T11:05:01.362Z,994.6
2018-11-26T11:10:01.635Z,994.56
2018-11-26T11:15:01.864Z,994.64
2018-11-26T11:20:02.118Z,994.63
2018-11-26T11:25:01.364Z,994.63
2018-11-26T11:30:01.617Z,994.68
2018-11-26T11:35:01.893Z,994.68
2018-11-26T11:40:02.125Z,994.67
2018-11-26T11:45:01.397Z,994.68
2018-11-26T11:50:01.662Z,994.69
2018-11-26T11:55:01.945Z,994.61
2018-11-26T12:00:02.186Z,994.62
2018-11-26T12:05:01.433Z,994.6
2018-11-26T12:10:01.696Z,994.68
2018-11-26T12:15:01.928Z,994.57
2018-11-26T12:20:02.146Z,994.56
2018-11-26T12:25:01.394Z,994.59
2018-11-26T12:30:01.660Z,994.57
2018-11-26T12:35:01.957Z,994.58
2018-11-26T12:40:02.186Z,994.53
2018-11-26T12:45:01.433Z,994.63
2018-11-26T12:50:01.694Z,994.58
2018-11-26T12:55:01.921Z,994.66
2018-11-26T13:00:02.139Z,994.68
2018-11-26T13:05:01.429Z,994.72
2018-11-26T13:10:01.692Z,994.7
2018-11-26T13:15:01.974Z,994.66
2018-11-26T13:20:02.242Z,994.62
2018-11-26T13:25:01.520Z,994.56
2018-11-26T13:30:01.796Z,994.6
2018-11-26T13:35:02.173Z,994.53
2018-11-26T13:40:01.473Z,994.61
2018-11-26T13:45:01.758Z,994.58
2018-11-26T13:50:01.978Z,994.64
2018-11-26T13:55:02.196Z,994.73
2018-11-26T14:00:01.425Z,994.79
2018-11-26T14:05:01.749Z,994.84
2018-11-26T14:10:01.972Z,994.87
2018-11-26T14:15:02.228Z,994.87
2018-11-26T14:20:01.624Z,994.88
2018-11-26T14:25:01.884Z,994.88
2018-11-26T14:30:02.124Z,994.91
2018-11-26T14:35:01.385Z,995
2018-11-26T14:40:01.645Z,995.05
2018-11-26T14:45:01.874Z,995.06
2018-11-26T14:50:02.112Z,995.01
2018-11-26T14:55:01.404Z,995.07
2018-11-26T15:00:01.650Z,995.1
2018-11-26T15:05:01.938Z,995.16
2018-11-26T15:10:02.238Z,995.23
2018-11-26T15:15:01.632Z,995.25
2018-11-26T15:20:01.897Z,995.24
2018-11-26T15:25:02.117Z,995.21
2018-11-26T15:30:01.414Z,995.27
2018-11-26T15:35:01.859Z,995.27
2018-11-26T15:40:02.109Z,995.39
2018-11-26T15:45:01.376Z,995.43
2018-11-26T15:50:01.724Z,995.42
2018-11-26T15:55:01.966Z,995.43
2018-11-26T16:00:02.182Z,995.44
2018-11-26T16:05:01.431Z,995.47
2018-11-26T16:10:01.734Z,995.53
2018-11-26T16:15:01.972Z,995.59
2018-11-26T16:20:02.191Z,995.61
2018-11-26T16:25:01.449Z,995.59
2018-11-26T16:30:01.736Z,995.65
2018-11-26T16:35:01.994Z,995.66
2018-11-26T16:40:01.279Z,995.69
2018-11-26T16:45:01.540Z,995.7
2018-11-26T16:50:01.833Z,995.74
2018-11-26T16:55:02.055Z,995.76
2018-11-26T17:00:01.365Z,995.82
2018-11-26T17:05:01.602Z,995.82
2018-11-26T17:10:01.886Z,995.9
2018-11-26T17:15:02.175Z,995.89
2018-11-26T17:20:01.423Z,995.98
2018-11-26T17:25:01.893Z,995.96
2018-11-26T17:30:02.160Z,996.07
2018-11-26T17:35:01.409Z,996.1
2018-11-26T17:40:01.685Z,996.15
2018-11-26T17:45:01.942Z,996.18
2018-11-26T17:50:02.225Z,996.23
2018-11-26T17:55:01.490Z,996.27
2018-11-26T18:00:01.760Z,996.36
2018-11-26T18:05:01.994Z,996.4
2018-11-26T18:10:01.294Z,996.43
2018-11-26T18:15:01.538Z,996.46
2018-11-26T18:20:01.812Z,996.58
2018-11-26T18:25:02.026Z,996.59
2018-11-26T18:30:01.311Z,996.66
2018-11-26T18:35:01.634Z,996.77
2018-11-26T18:40:01.892Z,996.78
2018-11-26T18:45:02.134Z,996.82
2018-11-26T18:50:01.400Z,996.87
2018-11-26T18:55:01.656Z,997.02
2018-11-26T19:00:01.913Z,997.09
2018-11-26T19:05:02.159Z,997.12
2018-11-26T19:10:01.435Z,997.11
2018-11-26T19:15:01.725Z,997.16
2018-11-26T19:20:02.012Z,997.26
2018-11-26T19:25:01.286Z,997.27
2018-11-26T19:30:01.641Z,997.37
2018-11-26T19:35:01.912Z,997.42
2018-11-26T19:40:02.173Z,997.5
2018-11-26T19:45:01.518Z,997.53
2018-11-26T19:50:02.639Z,997.52
2018-11-26T19:55:01.933Z,997.59
2018-11-26T20:00:02.165Z,997.66
2018-11-26T20:05:01.434Z,997.71
2018-11-26T20:10:01.717Z,997.73
2018-11-26T20:15:01.953Z,997.77
2018-11-26T20:20:02.191Z,997.87
2018-11-26T20:25:01.436Z,997.95
2018-11-26T20:30:01.754Z,997.98
2018-11-26T20:35:02.016Z,998.07
2018-11-26T20:40:01.301Z,998.12
2018-11-26T20:45:01.586Z,998.13
2018-11-26T20:50:01.877Z,998.13
2018-11-26T20:55:02.111Z,998.2
2018-11-26T21:00:01.643Z,998.22
2018-11-26T21:05:02.139Z,998.29
2018-11-26T21:10:01.468Z,998.28
2018-11-26T21:15:01.962Z,998.28
2018-11-26T21:20:02.185Z,998.32
2018-11-26T21:25:01.489Z,998.38
2018-11-26T21:30:01.776Z,998.43
2018-11-26T21:35:02.098Z,998.36
2018-11-26T21:40:01.390Z,998.34
2018-11-26T21:45:01.721Z,998.43
2018-11-26T21:50:01.969Z,998.46
2018-11-26T21:55:02.192Z,998.45
2018-11-26T22:00:01.434Z,998.51
2018-11-26T22:05:01.759Z,998.61
2018-11-26T22:10:01.988Z,998.56
2018-11-26T22:15:02.219Z,998.55
2018-11-26T22:20:01.509Z,998.69
2018-11-26T22:25:01.826Z,998.73
2018-11-26T22:30:02.103Z,998.8
2018-11-26T22:35:01.427Z,998.88
2018-11-26T22:40:01.719Z,998.87
2018-11-26T22:45:02.031Z,998.98
2018-11-26T22:50:01.319Z,999.09
2018-11-26T22:55:01.614Z,999.03
2018-11-26T23:00:01.856Z,999.07
2018-11-26T23:05:02.109Z,999.1
2018-11-26T23:10:01.396Z,999.15
2018-11-26T23:15:01.678Z,999.14
2018-11-26T23:20:01.933Z,999.18
2018-11-26T23:25:02.172Z,999.19
2018-11-26T23:30:01.429Z,999.2
2018-11-26T23:35:01.716Z,999.19
2018-11-26T23:40:01.965Z,999.22
2018-11-26T23:45:02.203Z,999.29
2018-11-26T23:50:01.489Z,999.35
2018-11-26T23:55:01.783Z,999.37
